D/T METAR WX W/DIR W/SPE G/SPE TEMP DEWP
23/03/19 12:00 EIWF 231200Z 04006KT 360V100 9999 SCT033 ///// Q1034 NE (40°) 6.9mph 0°C 0°C
23/03/19 11:30 EIWF 231130Z 04007KT 350V090 9999 SCT038 ///// Q1035 NE (40°) 8.1mph 0°C 0°C
23/03/19 11:00 EIWF 231100Z 04004KT 330V090 CAVOK ///// Q1035 NE (40°) 4.6mph 0°C 0°C
23/03/19 10:30 EIWF 231030Z 06004KT 010V100 CAVOK ///// Q1035 ENE (60°) 4.6mph 0°C 0°C
23/03/19 10:00 EIWF 231000Z VRB03KT CAVOK ///// Q1035 N (0°) 3.5mph 0°C 0°C
23/03/19 09:30 EIWF 230930Z VRB02KT CAVOK ///// Q1035 N (0°) 2.3mph 0°C 0°C
23/03/19 09:00 EIWF 230900Z VRB02KT CAVOK ///// Q1034 N (0°) 2.3mph 0°C 0°C
23/03/19 08:30 EIWF 230830Z VRB01KT CAVOK ///// Q1034 N (0°) 1.2mph 0°C 0°C
23/03/19 08:00 EIWF 230800Z 36003KT CAVOK ///// Q1034 N (360°) 3.5mph 0°C 0°C
22/03/19 20:30 EIWF 222030Z 33004KT 300V360 CAVOK ///// Q1029 R03/1///// NNW (330°) 4.6mph 0°C 0°C
22/03/19 20:00 EIWF 222000Z 31003KT CAVOK ///// Q1028 R03/1///// NW (310°) 3.5mph 0°C 0°C
22/03/19 19:30 EIWF 221930Z 32005KT 290V350 CAVOK ///// Q1028 R03/1///// NW (320°) 5.8mph 0°C 0°C
22/03/19 19:00 EIWF 221900Z 33006KT CAVOK ///// Q1027 R03/1///// NNW (330°) 6.9mph 0°C 0°C
22/03/19 18:30 EIWF 221830Z 32006KT 290V350 CAVOK ///// Q1027 R03/1///// NW (320°) 6.9mph 0°C 0°C
22/03/19 18:00 EIWF 221800Z 33010KT CAVOK ///// Q1026 R03/1///// NNW (330°) 11.5mph 0°C 0°C
22/03/19 17:30 EIWF 221730Z 33005KT 300V010 CAVOK ///// Q1026 R03/1///// NNW (330°) 5.8mph 0°C 0°C
22/03/19 17:00 EIWF 221700Z 32006KT 290V350 9999 BKN034 ///// Q1025 R03/1///// NW (320°) 6.9mph 0°C 0°C
22/03/19 16:30 EIWF 221630Z 33006KT 290V350 9999 BKN027 ///// Q1025 R03/1///// NNW (330°) 6.9mph 0°C 0°C
22/03/19 16:00 EIWF 221600Z 34007KT 9999 FEW004 BKN028 ///// Q1025 R03/1///// NNW (340°) 8.1mph 0°C 0°C
22/03/19 15:30 EIWF 221530Z 34008KT 300V010 8000 BR BKN006 ///// Q1025 REDZ R21/1///// BR NNW (340°) 9.2mph 0°C 0°C
22/03/19 15:00 EIWF 221500Z 33006KT 290V010 4000 DZ SCT005 BKN011 ///// Q1024 R21/1///// DZ NNW (330°) 6.9mph 0°C 0°C
22/03/19 14:00 EIWF 221400Z 25012KT 220V280 7000 DZ OVC003 ///// Q1024 R21/1///// DZ WSW (250°) 13.8mph 0°C 0°C
22/03/19 13:30 EIWF 221330Z 25012KT 220V300 7000 DZ OVC004 ///// Q1024 R21/1///// DZ WSW (250°) 13.8mph 0°C 0°C
22/03/19 12:30 EIWF 221230Z 24014KT 220V280 8000 SCT006 BKN009 ///// Q1023 WSW (240°) 16.1mph 0°C 0°C
22/03/19 12:00 EIWF 221200Z 24015KT 210V280 9999 BKN010 ///// Q1023 WSW (240°) 17.3mph 0°C 0°C
22/03/19 11:30 EIWF 221130Z 24016KT 9999 BKN014 ///// Q1023 WSW (240°) 18.4mph 0°C 0°C
22/03/19 11:00 EIWF 221100Z 24020KT 9999 BKN017 ///// Q1023 WSW (240°) 23.0mph 0°C 0°C
22/03/19 10:30 EIWF 221030Z 23021KT 9999 SCT022 BKN033 ///// Q1023 R21/0///// SW (230°) 24.2mph 0°C 0°C
22/03/19 10:00 EIWF 221000Z 24019KT 9999 BKN028 ///// Q1023 R21/1///// WSW (240°) 21.9mph 0°C 0°C
22/03/19 09:30 EIWF 220930Z 24017KT 9999 SCT016 BKN029 ///// Q1023 R21/1///// WSW (240°) 19.6mph 0°C 0°C
22/03/19 09:00 EIWF 220900Z 23017KT 9999 SCT014 BKN030 ///// Q1023 R21/1///// SW (230°) 19.6mph 0°C 0°C
22/03/19 08:30 EIWF 220830Z 24019KT 9999 SCT014 BKN023 ///// Q1023 R21/1///// WSW (240°) 21.9mph 0°C 0°C
22/03/19 08:00 EIWF 220800Z 23017KT 9999 BKN025 ///// Q1023 R21/1///// SW (230°) 19.6mph 0°C 0°C
21/03/19 20:30 EIWF 212030Z 22009KT 1500 BR BKN001 ///// Q1029 BR SW (220°) 10.4mph 0°C 0°C
21/03/19 20:00 EIWF 212000Z 22009KT 4000 BR FEW001 BKN002 ///// Q1030 BR SW (220°) 10.4mph 0°C 0°C
21/03/19 19:30 EIWF 211930Z 22011KT 190V250 1900 BR BKN001 BKN004 ///// Q1029 BR SW (220°) 12.7mph 0°C 0°C
21/03/19 19:00 EIWF 211900Z 22011KT 1500 BR BKN001 ///// Q1029 BR SW (220°) 12.7mph 0°C 0°C
21/03/19 18:30 EIWF 211830Z 22012KT 2000 BR BKN001 ///// Q1030 BR SW (220°) 13.8mph 0°C 0°C
21/03/19 18:00 EIWF 211800Z 22009KT 190V250 1600 BR BKN001 ///// Q1030 BR SW (220°) 10.4mph 0°C 0°C
21/03/19 17:30 EIWF 211730Z 22012KT 2000 BR BKN001 ///// Q1030 BR SW (220°) 13.8mph 0°C 0°C
21/03/19 17:00 EIWF 211700Z 23012KT 0400 FG BKN001 ///// Q1030 FG SW (230°) 13.8mph 0°C 0°C
21/03/19 16:30 EIWF 211630Z 24012KT 3000 BR BKN002 ///// Q1030 BR WSW (240°) 13.8mph 0°C 0°C
21/03/19 16:00 EIWF 211600Z 24012KT 9999 BKN004 ///// Q1031 WSW (240°) 13.8mph 0°C 0°C
21/03/19 15:30 EIWF 211530Z 23012KT 9999 BKN004 ///// Q1031 SW (230°) 13.8mph 0°C 0°C
21/03/19 15:00 EIWF 211500Z 24012KT 210V270 8000 BKN004 ///// Q1031 WSW (240°) 13.8mph 0°C 0°C
21/03/19 14:30 EIWF 211430Z 24011KT 200V260 3000 BR BKN003 ///// Q1031 BR WSW (240°) 12.7mph 0°C 0°C
21/03/19 14:00 EIWF 211400Z 23011KT 200V260 6000 BKN003 ///// Q1032 SW (230°) 12.7mph 0°C 0°C
21/03/19 13:30 EIWF 211330Z 23010KT 210V270 9999 SCT003 BKN015 ///// Q1032 SW (230°) 11.5mph 0°C 0°C
21/03/19 13:00 EIWF 211300Z 23011KT 190V260 9999 FEW003 BKN016 ///// Q1032 SW (230°) 12.7mph 0°C 0°C
21/03/19 12:30 EIWF 211230Z 23010KT 9999 FEW007 SCT009 BKN015 ///// Q1032 SW (230°) 11.5mph 0°C 0°C
21/03/19 11:30 EIWF 211130Z 24009KT 200V270 9999 SCT004 BKN016 ///// Q1033 WSW (240°) 10.4mph 0°C 0°C
21/03/19 11:00 EIWF 211100Z 23010KT 9999 BKN016 ///// Q1033 SW (230°) 11.5mph 0°C 0°C
21/03/19 10:30 EIWF 211030Z 23008KT 9999 BKN017 ///// Q1033 SW (230°) 9.2mph 0°C 0°C
21/03/19 10:00 EIWF 211000Z 24007KT 210V280 9999 BKN017 ///// Q1033 WSW (240°) 8.1mph 0°C 0°C
21/03/19 09:30 EIWF 210930Z 24007KT 220V280 9999 FEW008 BKN015 ///// Q1033 WSW (240°) 8.1mph 0°C 0°C
21/03/19 09:00 EIWF 210900Z 24005KT 9999 BKN015 ///// Q1033 WSW (240°) 5.8mph 0°C 0°C
21/03/19 08:30 EIWF 210830Z 26004KT 220V290 9999 BKN015 ///// Q1033 W (260°) 4.6mph 0°C 0°C
21/03/19 08:00 EIWF 210800Z 26005KT 210V290 9999 BKN016 ///// Q1033 W (260°) 5.8mph 0°C 0°C
20/03/19 20:30 EIWF 202030Z 25010KT 220V290 0250 FG VV000 ///// Q1031 FG WSW (250°) 11.5mph 0°C 0°C
20/03/19 20:00 EIWF 202000Z 26009KT 220V290 0350 FG VV000 ///// Q1031 FG W (260°) 10.4mph 0°C 0°C
20/03/19 19:30 EIWF 201930Z 25011KT 220V280 0750 FG FEW001 BKN003 ///// Q1031 FG WSW (250°) 12.7mph 0°C 0°C
20/03/19 19:00 EIWF 201900Z 25009KT 220V290 1500 BR OVC003 ///// Q1031 BR WSW (250°) 10.4mph 0°C 0°C
20/03/19 18:30 EIWF 201830Z 25009KT 200V290 0900 FG FEW001 BKN003 ///// Q1030 FG WSW (250°) 10.4mph 0°C 0°C
20/03/19 18:00 EIWF 201800Z 25008KT 220V280 0900 FG OVC003 ///// Q1031 FG WSW (250°) 9.2mph 0°C 0°C
20/03/19 17:30 EIWF 201730Z 25009KT 220V290 1100 BR BKN001 BKN003 ///// Q1030 BR WSW (250°) 10.4mph 0°C 0°C
20/03/19 17:00 EIWF 201700Z 24009KT 3000 BR BKN001 ///// Q1030 BR WSW (240°) 10.4mph 0°C 0°C
20/03/19 16:30 EIWF 201630Z 24011KT 210V270 0600 FG VV002 ///// Q1030 FG WSW (240°) 12.7mph 0°C 0°C
20/03/19 16:00 EIWF 201600Z 24011KT 210V270 0600 FG BKN002 ///// Q1030 FG WSW (240°) 12.7mph 0°C 0°C
20/03/19 15:30 EIWF 201530Z 25013KT 210V280 1500S BR BKN002 ///// Q1030 BR WSW (250°) 15.0mph 0°C 0°C
20/03/19 15:00 EIWF 201500Z 25012KT 220V280 1500 BR OVC001 ///// Q1030 BR WSW (250°) 13.8mph 0°C 0°C
20/03/19 14:30 EIWF 201430Z 25010KT 200V280 3000E BR BKN003 ///// Q1030 BR WSW (250°) 11.5mph 0°C 0°C
20/03/19 14:00 EIWF 201400Z 24013KT 0750 FG VV000 ///// Q1030 FG WSW (240°) 15.0mph 0°C 0°C
20/03/19 13:30 EIWF 201330Z 24012KT 0800 FG OVC001 ///// Q1031 FG WSW (240°) 13.8mph 0°C 0°C
20/03/19 12:30 EIWF 201230Z 24011KT 210V270 0300 FG BKN002 ///// Q1031 FG WSW (240°) 12.7mph 0°C 0°C
20/03/19 12:00 EIWF 201200Z 23009KT 210V280 0450 FG BKN002 ///// Q1031 FG SW (230°) 10.4mph 0°C 0°C
20/03/19 11:30 EIWF 201130Z 25008KT 0500 FG VV000 ///// Q1031 FG WSW (250°) 9.2mph 0°C 0°C
20/03/19 11:00 EIWF 201100Z 23010KT 200V270 0550 FG VV000 ///// Q1031 FG SW (230°) 11.5mph 0°C 0°C
20/03/19 10:30 EIWF 201030Z 23010KT 190V260 0200 FG VV000 ///// Q1031 FG SW (230°) 11.5mph 0°C 0°C
20/03/19 10:00 EIWF 201000Z 23008KT 200V260 0150 FG VV000 ///// Q1031 FG SW (230°) 9.2mph 0°C 0°C
20/03/19 09:30 EIWF 200930Z 24006KT 210V270 0150 FG VV000 ///// Q1031 FG WSW (240°) 6.9mph 0°C 0°C
20/03/19 09:00 EIWF 200900Z 24005KT 210V270 0100 FG VV000 ///// Q1031 FG WSW (240°) 5.8mph 0°C 0°C
20/03/19 08:00 EIWF 200800Z VRB02KT 0150 FG VV000 ///// Q1030 FG N (0°) 2.3mph 0°C 0°C
19/03/19 20:30 EIWF 192030Z 00000KT 4000 BR SCT020 ///// Q1028 BR N (0°) 0°C 0°C
19/03/19 20:00 EIWF 192000Z VRB03KT 8000 MIFG SCT020 ///// Q1028 MIFG N (0°) 3.5mph 0°C 0°C
19/03/19 19:30 EIWF 191930Z 19003KT 9999 FEW020 ///// Q1027 S (190°) 3.5mph 0°C 0°C
19/03/19 19:00 EIWF 191900Z 25003KT 9999 SCT022 ///// Q1027 WSW (250°) 3.5mph 0°C 0°C
19/03/19 18:30 EIWF 191830Z 24005KT 4000E SCT002 SCT020 ///// Q1027 WSW (240°) 5.8mph 0°C 0°C
19/03/19 18:00 EIWF 191800Z 22006KT 180V240 4000E BKN002 ///// Q1027 SW (220°) 6.9mph 0°C 0°C
19/03/19 17:30 EIWF 191730Z 23007KT 4000SE SCT001 SCT022 ///// Q1026 SW (230°) 8.1mph 0°C 0°C
19/03/19 17:00 EIWF 191700Z 22009KT 0900 FG BKN001 ///// Q1026 FG SW (220°) 10.4mph 0°C 0°C
19/03/19 16:30 EIWF 191630Z 23007KT 0800 FG BKN001 ///// Q1026 FG SW (230°) 8.1mph 0°C 0°C
19/03/19 16:00 EIWF 191600Z 24009KT 1000 FG BKN002 ///// Q1026 FG WSW (240°) 10.4mph 0°C 0°C
19/03/19 15:30 EIWF 191530Z 25008KT 9000 SCT003 BKN009 ///// Q1026 R21/0///// WSW (250°) 9.2mph 0°C 0°C
19/03/19 15:00 EIWF 191500Z 25010KT 210V290 4000S BKN002 ///// Q1025 R21/1///// WSW (250°) 11.5mph 0°C 0°C
19/03/19 14:30 EIWF 191430Z 24007KT 210V280 4000S BR BKN003 ///// Q1026 R21/1///// BR WSW (240°) 8.1mph 0°C 0°C
19/03/19 14:00 EIWF 191400Z 25010KT 8000 BKN001 BKN007 ///// Q1026 R21/1///// WSW (250°) 11.5mph 0°C 0°C
19/03/19 13:30 EIWF 191330Z 24011KT 1000 FG BKN001 ///// Q1025 R21/1///// FG WSW (240°) 12.7mph 0°C 0°C
19/03/19 13:00 EIWF 191300Z 24011KT 8000 OVC002 ///// Q1026 R21/1///// WSW (240°) 12.7mph 0°C 0°C
19/03/19 12:30 EIWF 191230Z 25010KT 220V300 5000 BR OVC002 ///// Q1026 R21/1///// BR WSW (250°) 11.5mph 0°C 0°C
19/03/19 12:00 EIWF 191200Z 25009KT 220V300 6000 BKN001 ///// Q1026 R21/1///// WSW (250°) 10.4mph 0°C 0°C
19/03/19 11:30 EIWF 191130Z 25009KT 220V280 0800 FG OVC001 ///// Q1026 R21/1///// FG WSW (250°) 10.4mph 0°C 0°C
19/03/19 11:00 EIWF 191100Z 25007KT 3500 BR OVC002 ///// Q1026 R21/1///// BR WSW (250°) 8.1mph 0°C 0°C
19/03/19 10:30 EIWF 191030Z 25005KT 230V290 4000 BR OVC003 ///// Q1026 R21/1///// BR WSW (250°) 5.8mph 0°C 0°C
19/03/19 10:00 EIWF 191000Z 25005KT 210V300 8000 BKN003 ///// Q1026 R21/1///// WSW (250°) 5.8mph 0°C 0°C
19/03/19 09:30 EIWF 190930Z 25007KT 9999 BKN004 ///// Q1026 R21/1///// WSW (250°) 8.1mph 0°C 0°C
19/03/19 09:00 EIWF 190900Z 25008KT 220V290 9999 FEW005 SCT007 BKN030 ///// Q1026 R21/1///// WSW (250°) 9.2mph 0°C 0°C
19/03/19 08:30 EIWF 190830Z 25008KT 220V280 9999 FEW010 SCT024 BKN030 ///// Q1026 R21/1///// WSW (250°) 9.2mph 0°C 0°C
19/03/19 08:00 EIWF 190800Z 24008KT 210V270 9999 FEW005 BKN027 ///// Q1025 R21/1///// WSW (240°) 9.2mph 0°C 0°C
18/03/19 20:30 EIWF 182030Z 33007KT 290V360 9999 FEW018 SCT028 ///// Q1024 R03/1///// NNW (330°) 8.1mph 0°C 0°C
18/03/19 20:00 EIWF 182000Z 33005KT 300V360 9999 FEW014 SCT025 ///// Q1024 R03/1///// NNW (330°) 5.8mph 0°C 0°C
18/03/19 19:00 EIWF 181900Z 32008KT 9999 SCT016 ///// Q1024 R03/1///// NW (320°) 9.2mph 0°C 0°C
18/03/19 18:30 EIWF 181830Z 32011KT 290V350 9999 SCT015 ///// Q1023 R03/1///// NW (320°) 12.7mph 0°C 0°C
18/03/19 18:00 EIWF 181800Z 32008KT 280V010 9999 BKN015 ///// Q1023 R03/1///// NW (320°) 9.2mph 0°C 0°C
18/03/19 17:30 EIWF 181730Z 33007KT 290V010 9999 SCT015 BKN018 ///// Q1023 R03/1///// NNW (330°) 8.1mph 0°C 0°C
18/03/19 17:00 EIWF 181700Z 32009KT 280V360 9999 BKN017 ///// Q1023 R03/1///// NW (320°) 10.4mph 0°C 0°C
18/03/19 16:30 EIWF 181630Z 31009KT 270V330 9999 SCT018 SCT027 ///// Q1023 R03/1///// NW (310°) 10.4mph 0°C 0°C
18/03/19 16:00 EIWF 181600Z 31008KT 280V350 9999 SCT019 ///// Q1022 R03/1///// NW (310°) 9.2mph 0°C 0°C
18/03/19 15:30 EIWF 181530Z 32008KT 280V360 9999 BKN019 ///// Q1022 R03/1///// NW (320°) 9.2mph 0°C 0°C
18/03/19 15:00 EIWF 181500Z 31008KT 9999 BKN020 ///// Q1022 R03/1///// NW (310°) 9.2mph 0°C 0°C
18/03/19 14:30 EIWF 181430Z 32010KT 290V350 9999 SCT019 SCT022 ///// Q1022 R03/1///// NW (320°) 11.5mph 0°C 0°C
18/03/19 14:00 EIWF 181400Z 32010KT 290V350 9999 -RA FEW015 BKN020 ///// Q1022 R03/1///// -RA NW (320°) 11.5mph 0°C 0°C
18/03/19 13:30 EIWF 181330Z 32010KT 280V350 9999 SCT018 BKN040 ///// Q1022 R21/1///// NW (320°) 11.5mph 0°C 0°C
18/03/19 13:00 EIWF 181300Z 28007KT 250V310 9999 SCT011 BKN040 ///// Q1022 R21/1///// W (280°) 8.1mph 0°C 0°C
18/03/19 12:30 EIWF 181230Z 28008KT 230V310 9999 -RA SCT011 BKN015 ///// Q1022 R21/1///// -RA W (280°) 9.2mph 0°C 0°C
18/03/19 12:00 EIWF 181200Z 27008KT 230V300 9999 -RA FEW010 SCT016 BKN020 ///// Q1022 R21/1///// -RA W (270°) 9.2mph 0°C 0°C
18/03/19 11:30 EIWF 181130Z 27009KT 240V300 9999 BKN019 ///// Q1022 R21/1///// W (270°) 10.4mph 0°C 0°C
18/03/19 11:00 EIWF 181100Z 28009KT 240V310 9999 BKN020 BKN096 ///// Q1022 R21/1///// W (280°) 10.4mph 0°C 0°C
18/03/19 10:30 EIWF 181030Z 28011KT 240V300 9999 SCT023 BKN096 ///// Q1022 R21/1///// W (280°) 12.7mph 0°C 0°C
18/03/19 10:00 EIWF 181000Z 28009KT 250V310 9999 SCT023 BKN096 ///// Q1021 R21/1///// W (280°) 10.4mph 0°C 0°C
18/03/19 09:30 EIWF 180930Z 28011KT 250V310 9999 -RA FEW025 BKN095 ///// Q1021 R21/1///// -RA W (280°) 12.7mph 0°C 0°C
18/03/19 09:00 EIWF 180900Z 28010KT 250V310 9999 FEW025 BKN096 ///// Q1021 R21/1///// W (280°) 11.5mph 0°C 0°C
18/03/19 08:30 EIWF 180830Z 28009KT 9999 -RA FEW025 SCT060 BKN100 ///// Q1021 R21/1///// -RA W (280°) 10.4mph 0°C 0°C
18/03/19 08:00 EIWF 180800Z 28009KT 9999 -RA FEW025 BKN100 ///// Q1021 R21/1///// -RA W (280°) 10.4mph 0°C 0°C
18/03/19 07:30 EIWF 180730Z 27006KT 240V310 9999 FEW025 BKN100 ///// Q1021 R21/1///// W (270°) 6.9mph 0°C 0°C
18/03/19 07:00 EIWF 180700Z 28008KT 250V310 9999 FEW020 ///// Q1021 R21/1///// W (280°) 9.2mph 0°C 0°C
18/03/19 06:30 EIWF 180630Z 28007KT 250V310 CAVOK ///// Q1021 W (280°) 8.1mph 0°C 0°C
18/03/19 06:00 EIWF 180600Z 28006KT CAVOK ///// Q1021 REDZ W (280°) 6.9mph 0°C 0°C
18/03/19 05:30 EIWF 180530Z 29007KT 9999 DZ NSC ///// Q1021 DZ WNW (290°) 8.1mph 0°C 0°C
18/03/19 05:00 EIWF 180500Z 29007KT 260V320 9999 DZ NSC ///// Q1021 DZ WNW (290°) 8.1mph 0°C 0°C
18/03/19 04:30 EIWF 180430Z 27005KT CAVOK ///// Q1021 W (270°) 5.8mph 0°C 0°C
18/03/19 04:00 EIWF 180400Z 28006KT 240V320 CAVOK ///// Q1021 W (280°) 6.9mph 0°C 0°C
18/03/19 03:30 EIWF 180330Z 31008KT 270V330 CAVOK ///// Q1021 NW (310°) 9.2mph 0°C 0°C
18/03/19 03:00 EIWF 180300Z 30009KT 270V330 CAVOK ///// Q1021 WNW (300°) 10.4mph 0°C 0°C
18/03/19 02:30 EIWF 180230Z 30005KT 270V350 CAVOK ///// Q1021 WNW (300°) 5.8mph 0°C 0°C